• Join FlightAware (Why Join?)
  • Login
  • US Flag 
03:09AM EDT


 

Airport Tracker/Info


-or-


 

Live Flight TrackerFlight Track Log ✈ UAL5908 ✈ 01-May-2013 ✈ KIAD - CYOW

Flight Track Log - Related Links

Times and Time Zones

All times are in EDT time to prevent confusion due to time zone crossing. See the UAL5908 flight status page for this flight to view local times or setup timezone preferences in your user account.

Time Position Orientation Groundspeed Altitude Reporting Facility
EDT Latitude Longitude Course Direction KTS MPH feet Rate Location/Type
08:03AM 39.0289 -77.5422 14° North 268 308 5,400  Level Washington Center
08:04AM 39.1044 -77.5175 14° North 258 297 8,900 2,760 Climbing Washington Center
08:05AM 39.1856 -77.5250 356° North 264 304 10,900 2,040 Climbing Washington Center
08:06AM 39.2814 -77.5303 358° North 298 343 13,200 2,340 Climbing Washington Center
08:07AM 39.3772 -77.5219 North 331 381 15,700 2,280 Climbing Washington Center
08:08AM 39.4736 -77.4978 11° North 342 394 17,800 1,860 Climbing Washington Center
08:10AM 39.6572 -77.4561 10° North 348 400 21,100 1,980 Climbing New York Center
08:11AM 39.7575 -77.4522 North 358 412 23,600 2,340 Climbing New York Center
08:12AM 39.8531 -77.4233 13° North 351 404 25,800 1,620 Climbing New York Center
08:13AM 39.9506 -77.3922 14° North 351 404 26,900 540 Climbing New York Center
08:14AM 40.0589 -77.3589 13° North 374 430 27,000 480 Climbing New York Center
08:15AM 40.1733 -77.3236 13° North 400 460 27,900 1,140 Climbing New York Center
08:16AM 40.2856 -77.2906 13° North 418 481 29,300 1,320 Climbing New York Center
08:17AM 40.3811 -77.2589 14° North 406 467 30,600 1,320 Climbing New York Center
08:18AM 40.4894 -77.2225 14° North 401 461 32,100 1,200 Climbing New York Center
08:19AM 40.5997 -77.1892 13° North 401 461 33,000 300 Climbing New York Center
08:21AM 40.8286 -77.1172 13° North 411 473 33,000  Level New York Center
08:22AM 40.9433 -77.0786 14° North 417 480 33,000  Level New York Center
08:23AM 41.0600 -77.0425 13° North 417 480 33,000  Level New York Center
08:24AM 41.1722 -77.0061 14° North 417 480 33,000  Level New York Center
08:25AM 41.2867 -76.9697 13° North 417 480 33,000  Level New York Center
08:26AM 41.4011 -76.9333 13° North 417 480 33,000  Level New York Center
08:27AM 41.5156 -76.8967 13° North 417 480 33,000  Level New York Center
08:28AM 41.6278 -76.8569 15° North 417 480 33,000  Level New York Center
08:30AM 41.8350 -76.7925 13° North 456 525 33,000  Level Cleveland Center
08:31AM 41.9381 -76.7586 14° North 427 491 33,000  Level Cleveland Center
08:33AM 42.2175 -76.6625 14° North 426 490 33,000  Level Boston Center
08:34AM 42.3336 -76.6256 13° North 420 483 33,000  Level Boston Center
08:35AM 42.4456 -76.5878 14° North 420 483 33,000  Level Boston Center
08:36AM 42.5594 -76.5503 14° North 420 483 33,000  Level Boston Center
08:37AM 42.6861 -76.5081 14° North 425 489 33,000  Level Boston Center
08:38AM 42.7769 -76.4742 15° North 425 489 33,000  Level Boston Center
08:39AM 42.8992 -76.4369 13° North 417 480 33,000  Level Boston Center
08:40AM 43.0133 -76.3961 15° North 417 480 33,000  Level Boston Center
08:41AM 43.1272 -76.3578 14° North 417 480 33,000  Level Boston Center
08:42AM 43.2389 -76.3194 14° North 417 480 33,000 -300 Level Boston Center
08:43AM 43.3531 -76.2781 15° North 417 480 32,500 -840 Descending Boston Center
08:44AM 43.4669 -76.2397 14° North 417 480 31,400 -1,080 Descending Boston Center
08:45AM 43.5806 -76.2008 14° North 417 480 30,400 -1,020 Descending Boston Center
08:46AM 43.6967 -76.1564 15° North 417 480 29,400 -1,080 Descending Boston Center
08:47AM 43.8128 -76.1175 14° North 417 480 28,300 -1,080 Descending Boston Center
08:48AM 43.9308 -76.0728 15° North 422 486 27,300 -1,020 Descending Boston Center
08:49AM 44.0456 -76.0047 23° Northeast 427 491 26,300 -1,080 Descending Boston Center
08:50AM 44.1519 -75.9386 24° Northeast 427 491 25,200 -1,080 Descending Boston Center
08:51AM 44.2689 -75.8586 26° Northeast 420 483 24,200 -1,080 Descending Boston Center
08:52AM 44.3753 -75.7892 25° Northeast 420 483 23,100 -1,380 Descending Boston Center
08:53AM 44.4000 -75.7500 49° Northeast 420 483 22,200 -2,340 Descending Montreal Center
08:54AM 44.5167 -75.6833 22° Northeast 410 472 19,700 -2,400 Descending Montreal Center
08:55AM 44.6167 -75.6167 25° Northeast 400 460 17,400 -2,700 Descending Montreal Center
08:56AM 44.7167 -75.5500 25° Northeast 380 437 14,300 -2,700 Descending Montreal Center
08:57AM 44.8000 -75.5000 23° Northeast 350 403 12,100 -1,920 Descending Montreal Center
08:58AM 44.8833 -75.4167 35° Northeast 350 403 10,500 -1,380 Descending Montreal Center
08:59AM 44.9667 -75.4000 North 290 334 9,400 -1,140 Descending Montreal Center
09:00AM 45.0333 -75.4167 350° North 280 322 8,300 -780 Descending Montreal Center
09:01AM 45.1167 -75.4167 360° North 280 322 7,900 -600 Descending Montreal Center
09:02AM 45.1833 -75.4500 341° North 240 276 7,100 -600 Descending Montreal Center
09:03AM 45.2500 -75.4000 28° Northeast 240 276 6,800 -600 Descending Montreal Center
09:04AM 45.3167 -75.3667 19° North 240 276 6,000 -960 Descending Montreal Center
09:05AM 45.3833 -75.3500 10° North 240 276 4,900 -1,200 Descending Montreal Center
09:06AM 45.4167 -75.4000 314° West 230 265 3,700 -960 Descending Montreal Center
09:07AM 45.3833 -75.4667 235° Southwest 200 230 3,000 -600 Descending Montreal Center
09:08AM 45.3667 -75.5167 245° Southwest 180 207 2,500 -720 Descending Montreal Center
09:09AM 45.3333 -75.5667 227° Southwest 130 150 1,600 -840 Descending Montreal Center
09:10AM 45.3167 -75.6167 245° Southwest 130 150 900 -600 Descending Montreal Center
09:11AM 45.3000 -75.6667 245° Southwest 120 138 400 -540 Descending Montreal Center